Terminal Aerodrome Forecast
Issued by NWS

Home | Current Version | Previous Version | Graphics & Text | Print | Product List | Glossary On
Versions: 1 2 3 4 5 6 7 8 9 10 11 12 13
000
FTUS45 KGGW 181140
TAFSDY
TAF
KSDY 181140Z 1812/1912 23005KT P6SM SCT150
     FM182100 23007KT P6SM SCT025
     FM190000 22006KT P6SM BKN025
     FM190200 22005KT P6SM BKN040
     FM191100 27005KT P6SM OVC030=

USA.gov is the U.S. government's official web portal to all federal, state and local government web resources and services.